Time;durP1;ratioP1;P1;durP2;ratioP2;P2;SDS_P1;SDS_P2;PMS_P1;PMS_P2;Temp;Humidity;BMP_temperature;BMP_pressure;BME280_temperature;BME280_humidity;BME280_pressure;Samples;Min_cycle;Max_cycle;Signal;HPM_P1;HPM_P2
2021/10/29 00:01:15;;;;;;;99.63;48.17;;;6.80;99.90;;;;;;4351587;33;20145;-66
2021/10/29 00:03:42;;;;;;;106.20;48.33;;;6.80;99.90;;;;;;4338382;33;20174;-65
2021/10/29 00:06:10;;;;;;;101.30;47.53;;;6.80;99.90;;;;;;4336322;33;20175;-66
2021/10/29 00:08:37;;;;;;;103.57;48.47;;;6.80;99.90;;;;;;4337875;33;20192;-65
2021/10/29 00:11:03;;;;;;;101.40;48.27;;;6.80;99.90;;;;;;4338104;33;20236;-64
2021/10/29 00:13:30;;;;;;;103.60;50.20;;;6.80;99.90;;;;;;4336413;33;20283;-65
2021/10/29 00:15:57;;;;;;;101.77;48.87;;;6.80;99.90;;;;;;4337820;33;20475;-66
2021/10/29 00:18:25;;;;;;;99.83;48.23;;;6.80;99.90;;;;;;4335865;33;20187;-65
2021/10/29 00:20:55;;;;;;;108.30;50.93;;;6.80;99.90;;;;;;4349856;33;20196;-66
2021/10/29 00:23:24;;;;;;;108.00;49.43;;;6.80;99.90;;;;;;4350707;33;20182;-65
2021/10/29 00:25:51;;;;;;;102.33;48.97;;;6.80;99.90;;;;;;4336582;33;20207;-65
2021/10/29 00:28:18;;;;;;;103.57;50.63;;;6.80;99.90;;;;;;4336901;33;20602;-65
2021/10/29 00:30:45;;;;;;;101.27;49.07;;;6.80;99.90;;;;;;4337870;33;20231;-66
2021/10/29 00:33:12;;;;;;;98.10;48.63;;;6.80;99.90;;;;;;4348256;33;20179;-65
2021/10/29 00:35:39;;;;;;;107.90;50.23;;;6.70;99.90;;;;;;4337942;33;20188;-65
2021/10/29 00:38:05;;;;;;;96.23;47.73;;;6.80;99.90;;;;;;4350354;33;20184;-65
2021/10/29 00:40:34;;;;;;;104.73;50.00;;;6.80;99.90;;;;;;4349964;33;20222;-65
2021/10/29 00:43:01;;;;;;;104.77;48.53;;;6.80;99.90;;;;;;4336024;33;20196;-65
2021/10/29 00:45:28;;;;;;;99.00;48.87;;;6.80;99.90;;;;;;4349328;33;20543;-65
2021/10/29 00:47:55;;;;;;;101.47;48.83;;;6.80;99.90;;;;;;4337454;33;20192;-65
2021/10/29 00:50:22;;;;;;;102.63;48.63;;;6.80;99.90;;;;;;4337289;33;20180;-65
2021/10/29 00:52:49;;;;;;;98.27;47.30;;;6.80;99.90;;;;;;4337714;33;20186;-67
2021/10/29 00:55:16;;;;;;;102.03;48.87;;;6.80;99.90;;;;;;4337999;33;20180;-66
2021/10/29 00:57:43;;;;;;;102.80;49.17;;;6.80;99.90;;;;;;4337755;33;20186;-65
2021/10/29 01:00:11;;;;;;;106.27;50.57;;;6.70;99.90;;;;;;4337189;33;20186;-65
2021/10/29 01:02:39;;;;;;;99.73;48.93;;;6.70;99.90;;;;;;4349507;33;20510;-65
2021/10/29 01:05:08;;;;;;;99.17;48.77;;;6.70;99.90;;;;;;4335715;33;20195;-65
2021/10/29 01:07:36;;;;;;;99.60;50.03;;;6.70;99.90;;;;;;4350872;33;20247;-65
2021/10/29 01:10:04;;;;;;;100.13;49.50;;;6.70;99.90;;;;;;4348590;33;20231;-65
2021/10/29 01:12:31;;;;;;;103.10;48.37;;;6.70;99.90;;;;;;4350061;33;20613;-65
2021/10/29 01:15:01;;;;;;;100.80;49.43;;;6.70;99.90;;;;;;4349940;33;20212;-64
2021/10/29 01:17:28;;;;;;;96.90;48.37;;;6.70;99.90;;;;;;4349175;33;20189;-65
2021/10/29 01:19:56;;;;;;;97.87;48.50;;;6.60;99.90;;;;;;4335284;33;20183;-65
2021/10/29 01:22:24;;;;;;;94.40;48.80;;;6.60;99.90;;;;;;4335293;33;20184;-66
2021/10/29 01:24:52;;;;;;;97.13;47.60;;;6.70;99.90;;;;;;4349480;33;20449;-66
2021/10/29 01:27:21;;;;;;;102.27;49.20;;;6.60;99.90;;;;;;4349832;33;20550;-66
2021/10/29 01:29:49;;;;;;;100.80;48.90;;;6.70;99.90;;;;;;4348710;33;20200;-65
2021/10/29 01:32:17;;;;;;;97.53;48.97;;;6.70;99.90;;;;;;4347541;33;20238;-66
2021/10/29 01:34:44;;;;;;;95.17;48.80;;;6.60;99.90;;;;;;4336872;33;20173;-66
2021/10/29 01:37:13;;;;;;;97.27;46.47;;;6.60;99.90;;;;;;4348907;33;20183;-66
2021/10/29 01:39:41;;;;;;;94.17;47.37;;;6.60;99.90;;;;;;4349943;33;20188;-66
2021/10/29 01:42:07;;;;;;;100.13;50.10;;;6.60;99.90;;;;;;4337128;33;20199;-66
2021/10/29 01:44:34;;;;;;;96.43;48.03;;;6.60;99.90;;;;;;4337090;33;20198;-66
2021/10/29 01:47:02;;;;;;;92.80;47.60;;;6.60;99.90;;;;;;4335226;33;20232;-66
2021/10/29 01:49:30;;;;;;;92.77;47.17;;;6.60;99.90;;;;;;4347334;33;20219;-66
2021/10/29 01:51:57;;;;;;;95.20;46.83;;;6.50;99.90;;;;;;4348914;33;20192;-66
2021/10/29 01:54:24;;;;;;;88.30;46.03;;;6.60;99.90;;;;;;4348625;33;20231;-66
2021/10/29 01:56:56;;;;;;;96.57;46.13;;;6.60;99.90;;;;;;4348359;33;20150;-66
2021/10/29 01:59:24;;;;;;;94.60;46.53;;;6.50;99.90;;;;;;4336877;33;20197;-65
2021/10/29 02:01:52;;;;;;;97.97;48.87;;;6.60;99.90;;;;;;4350405;33;20155;-66
2021/10/29 02:04:19;;;;;;;95.07;47.53;;;6.60;99.90;;;;;;4335625;33;20188;-66
2021/10/29 02:06:46;;;;;;;101.87;48.27;;;6.60;99.90;;;;;;4348926;33;20237;-66
2021/10/29 02:09:13;;;;;;;94.07;46.07;;;6.60;99.90;;;;;;4348896;33;20207;-66
2021/10/29 02:11:41;;;;;;;96.20;48.67;;;6.50;99.90;;;;;;4334759;33;20180;-66
2021/10/29 02:14:08;;;;;;;94.90;47.83;;;6.50;99.90;;;;;;4347383;33;20192;-65
2021/10/29 02:16:35;;;;;;;94.73;47.30;;;6.40;99.90;;;;;;4346877;33;20500;-65
2021/10/29 02:19:03;;;;;;;93.90;47.43;;;6.50;99.90;;;;;;4348482;33;20196;-65
2021/10/29 02:21:31;;;;;;;96.47;47.17;;;6.50;99.90;;;;;;4346876;33;20562;-65
2021/10/29 02:23:58;;;;;;;95.90;47.57;;;6.50;99.90;;;;;;4336625;33;20184;-65
2021/10/29 02:26:26;;;;;;;96.67;49.60;;;6.40;99.90;;;;;;4347212;33;20172;-66
2021/10/29 02:28:52;;;;;;;95.40;47.87;;;6.40;99.90;;;;;;4348185;33;20593;-66
2021/10/29 02:31:19;;;;;;;92.53;47.57;;;6.40;99.90;;;;;;4334257;33;20176;-67
2021/10/29 02:33:46;;;;;;;93.23;47.23;;;6.30;99.90;;;;;;4334331;33;20176;-66
2021/10/29 02:36:13;;;;;;;92.73;46.47;;;6.40;99.90;;;;;;4334195;33;20203;-66
2021/10/29 02:38:40;;;;;;;89.67;46.30;;;6.40;99.90;;;;;;4336107;33;20211;-66
2021/10/29 02:41:07;;;;;;;85.83;43.80;;;6.40;99.90;;;;;;4348007;33;20203;-66
2021/10/29 02:43:33;;;;;;;87.70;44.17;;;6.50;99.90;;;;;;4335087;33;20441;-66
2021/10/29 02:46:00;;;;;;;88.77;44.07;;;6.40;99.90;;;;;;4347869;33;20424;-66
2021/10/29 02:48:27;;;;;;;89.03;44.47;;;6.40;99.90;;;;;;4347173;33;20505;-65
2021/10/29 02:50:55;;;;;;;85.20;43.73;;;6.50;99.90;;;;;;4335302;33;20184;-66
2021/10/29 02:53:24;;;;;;;83.27;45.13;;;6.50;99.90;;;;;;4348618;33;20223;-67
2021/10/29 02:55:50;;;;;;;84.03;43.00;;;6.50;99.90;;;;;;4335939;33;20565;-66
2021/10/29 02:58:17;;;;;;;86.53;43.83;;;6.50;99.90;;;;;;4336206;33;20375;-66
2021/10/29 03:00:44;;;;;;;84.10;42.93;;;6.50;99.90;;;;;;4334691;33;20375;-65
2021/10/29 03:03:11;;;;;;;83.80;42.40;;;6.50;99.90;;;;;;4335558;33;20195;-66
2021/10/29 03:05:39;;;;;;;81.00;43.43;;;6.50;99.90;;;;;;4347131;33;20198;-66
2021/10/29 03:08:06;;;;;;;81.13;43.60;;;6.40;99.90;;;;;;4335252;33;20272;-66
2021/10/29 03:10:33;;;;;;;84.17;44.63;;;6.40;99.90;;;;;;4348250;33;20203;-65
2021/10/29 03:13:00;;;;;;;80.00;42.13;;;6.30;99.90;;;;;;4347306;33;20191;-65
2021/10/29 03:15:27;;;;;;;79.23;42.37;;;6.30;99.90;;;;;;4334870;33;20187;-66
2021/10/29 03:17:54;;;;;;;78.83;42.33;;;6.30;99.90;;;;;;4335865;33;20242;-67
2021/10/29 03:20:21;;;;;;;80.97;41.23;;;6.20;99.90;;;;;;4335595;33;20241;-66
2021/10/29 03:22:48;;;;;;;80.47;41.50;;;6.20;99.90;;;;;;4334049;33;20187;-65
2021/10/29 03:25:15;;;;;;;85.40;44.50;;;6.10;99.90;;;;;;4335832;33;20194;-65
2021/10/29 03:27:42;;;;;;;88.83;43.37;;;6.10;99.90;;;;;;4335443;33;20490;-66
2021/10/29 03:30:10;;;;;;;87.73;44.77;;;6.10;99.90;;;;;;4347430;33;20194;-65
2021/10/29 03:32:37;;;;;;;85.30;43.93;;;6.00;99.90;;;;;;4333910;33;20233;-65
2021/10/29 03:35:06;;;;;;;93.37;45.27;;;6.00;99.90;;;;;;4336087;33;20225;-65
2021/10/29 03:37:49;;;;;;;88.10;45.17;;;5.90;99.90;;;;;;4333859;33;20188;-66
2021/10/29 03:40:37;;;;;;;91.93;45.27;;;5.90;99.90;;;;;;4346186;33;20234;-66
2021/10/29 03:43:26;;;;;;;90.53;44.10;;;5.90;99.90;;;;;;4345091;33;20179;-66
2021/10/29 03:48:30;;;;;;;87.10;44.53;;;5.90;99.90;;;;;;4335572;33;20406;-65
2021/10/29 03:51:12;;;;;;;85.17;43.10;;;5.90;99.90;;;;;;4338121;33;20228;-66
2021/10/29 03:53:55;;;;;;;91.93;44.20;;;5.80;99.90;;;;;;4334570;33;20208;-65
2021/10/29 03:56:24;;;;;;;83.13;43.63;;;5.80;99.90;;;;;;4332788;33;20237;-66
2021/10/29 03:58:53;;;;;;;88.27;44.13;;;5.80;99.90;;;;;;4320016;33;20185;-65
2021/10/29 04:01:21;;;;;;;88.63;43.47;;;5.80;99.90;;;;;;4322085;33;20509;-65
2021/10/29 04:03:48;;;;;;;80.23;42.53;;;5.80;99.90;;;;;;4335686;33;20234;-64
2021/10/29 04:06:15;;;;;;;84.00;41.70;;;5.80;99.90;;;;;;4321974;33;20219;-65
2021/10/29 04:08:43;;;;;;;78.03;41.40;;;5.80;99.90;;;;;;4335802;33;20662;-65
2021/10/29 04:11:09;;;;;;;79.70;40.80;;;5.80;99.90;;;;;;4323810;33;20178;-65
2021/10/29 04:13:38;;;;;;;80.63;41.93;;;5.80;99.90;;;;;;4336941;33;20346;-66
2021/10/29 04:16:06;;;;;;;81.37;41.73;;;5.80;99.90;;;;;;4335988;33;20181;-65
2021/10/29 04:18:33;;;;;;;76.90;40.67;;;5.80;99.90;;;;;;4335216;33;20311;-65
2021/10/29 04:21:01;;;;;;;78.63;39.80;;;5.90;99.90;;;;;;4321539;33;20192;-65
2021/10/29 04:23:28;;;;;;;79.27;41.17;;;5.90;99.90;;;;;;4346280;33;20192;-65
2021/10/29 04:25:55;;;;;;;73.77;38.97;;;5.90;99.90;;;;;;4321749;33;20177;-66
2021/10/29 04:28:23;;;;;;;76.03;40.60;;;5.90;99.90;;;;;;4323165;33;20271;-66
2021/10/29 04:30:52;;;;;;;74.23;38.77;;;5.90;99.90;;;;;;4333796;33;20183;-67
2021/10/29 04:33:20;;;;;;;72.37;38.20;;;5.90;99.90;;;;;;4333681;33;20168;-66
2021/10/29 04:35:50;;;;;;;72.30;37.83;;;5.90;99.90;;;;;;4336670;33;20409;-66
2021/10/29 04:38:17;;;;;;;73.20;38.50;;;5.90;99.90;;;;;;4335269;33;20157;-66
2021/10/29 04:40:44;;;;;;;74.03;38.57;;;5.90;99.90;;;;;;4335270;33;20526;-66
2021/10/29 04:43:12;;;;;;;71.07;38.27;;;5.90;99.90;;;;;;4323168;33;20177;-66
2021/10/29 04:45:39;;;;;;;74.63;38.07;;;5.90;99.90;;;;;;4333520;33;20206;-67
2021/10/29 04:48:06;;;;;;;73.93;37.23;;;6.00;99.90;;;;;;4334336;33;20216;-66
2021/10/29 04:50:33;;;;;;;73.57;38.13;;;6.00;99.90;;;;;;4341909;33;20228;-65
2021/10/29 04:53:00;;;;;;;72.90;37.30;;;6.00;99.90;;;;;;4337916;33;20195;-66
2021/10/29 04:55:27;;;;;;;69.53;36.60;;;6.00;99.90;;;;;;4336206;33;20183;-66
2021/10/29 04:57:54;;;;;;;73.37;36.80;;;6.00;99.90;;;;;;4337676;33;20572;-65
2021/10/29 05:00:21;;;;;;;70.93;37.20;;;5.90;99.90;;;;;;4350120;33;20191;-65
2021/10/29 05:02:48;;;;;;;68.97;36.43;;;5.90;99.90;;;;;;4337494;33;20565;-65
2021/10/29 05:05:15;;;;;;;73.73;38.23;;;6.00;99.90;;;;;;4350838;33;20171;-65
2021/10/29 05:07:42;;;;;;;68.27;35.87;;;6.00;99.90;;;;;;4348287;33;20549;-65
2021/10/29 05:10:09;;;;;;;69.03;36.90;;;5.90;99.90;;;;;;4335464;33;20291;-66
2021/10/29 05:12:36;;;;;;;72.83;36.33;;;5.90;99.90;;;;;;4336570;33;20214;-65
2021/10/29 05:15:03;;;;;;;64.60;35.37;;;6.00;99.90;;;;;;4349490;33;20218;-65
2021/10/29 05:17:30;;;;;;;67.30;35.93;;;6.00;99.90;;;;;;4335663;33;20203;-65
2021/10/29 05:19:57;;;;;;;69.47;36.83;;;6.00;99.90;;;;;;4347288;33;20550;-65
2021/10/29 05:22:23;;;;;;;66.00;35.37;;;6.00;99.90;;;;;;4335790;33;20184;-67
2021/10/29 05:24:50;;;;;;;66.50;35.57;;;5.90;99.90;;;;;;4335992;33;20186;-65
2021/10/29 05:27:17;;;;;;;68.10;36.50;;;5.90;99.90;;;;;;4336917;33;20180;-64
2021/10/29 05:29:44;;;;;;;64.67;36.37;;;5.90;99.90;;;;;;4335489;33;20191;-65
2021/10/29 05:32:10;;;;;;;64.93;35.07;;;5.90;99.90;;;;;;4350526;33;20159;-65
2021/10/29 05:34:37;;;;;;;65.07;35.03;;;5.90;99.90;;;;;;4335567;33;20246;-66
2021/10/29 05:37:04;;;;;;;58.87;33.27;;;5.90;99.90;;;;;;4350735;33;20157;-65
2021/10/29 05:39:32;;;;;;;64.20;34.93;;;6.00;99.90;;;;;;4336821;33;20186;-65
2021/10/29 05:41:59;;;;;;;66.43;33.70;;;6.00;99.90;;;;;;4347155;33;20203;-65
2021/10/29 05:44:27;;;;;;;65.40;33.57;;;6.00;99.90;;;;;;4349367;33;20184;-65
2021/10/29 05:46:55;;;;;;;62.17;33.47;;;6.00;99.90;;;;;;4349224;33;20229;-65
2021/10/29 05:49:23;;;;;;;62.83;34.37;;;6.00;99.90;;;;;;4346932;33;20530;-66
2021/10/29 05:51:51;;;;;;;67.23;34.97;;;6.00;99.90;;;;;;4346814;33;20234;-65
2021/10/29 05:57:00;;;;;;;59.33;31.93;;;5.90;99.90;;;;;;4336491;33;20159;-66
2021/10/29 05:59:28;;;;;;;61.30;32.80;;;5.90;99.90;;;;;;4332391;33;20519;-66
2021/10/29 06:01:54;;;;;;;64.53;33.03;;;5.90;99.90;;;;;;4334388;33;20414;-65
2021/10/29 06:04:21;;;;;;;58.70;32.20;;;6.00;99.90;;;;;;4333845;33;20579;-63
2021/10/29 06:06:48;;;;;;;61.53;33.40;;;6.00;99.90;;;;;;4333925;33;20264;-64
2021/10/29 06:09:15;;;;;;;60.93;33.07;;;6.00;99.90;;;;;;4333666;33;20205;-64
2021/10/29 06:11:42;;;;;;;60.17;33.23;;;6.00;99.90;;;;;;4332037;33;20237;-65
2021/10/29 06:14:09;;;;;;;62.83;32.70;;;6.00;99.90;;;;;;4333872;33;20553;-64
2021/10/29 06:16:36;;;;;;;58.67;32.90;;;6.10;99.90;;;;;;4333715;33;20258;-64
2021/10/29 06:19:04;;;;;;;62.90;32.47;;;6.10;99.90;;;;;;4334016;33;20191;-64
2021/10/29 06:21:39;;;;;;;58.17;31.07;;;6.20;99.90;;;;;;4333512;33;20211;-64
2021/10/29 06:24:10;;;;;;;57.73;32.17;;;6.20;99.90;;;;;;4334146;33;20576;-63
2021/10/29 06:28:08;;;;;;;55.80;30.73;;;6.20;99.90;;;;;;4334788;33;20215;-64
2021/10/29 06:29:30;;;;;;;53.73;30.37;;;6.30;99.90;;;;;;4322812;33;20192;-64
2021/10/29 06:31:57;;;;;;;55.93;30.57;;;6.30;99.90;;;;;;4335086;33;20224;-63
2021/10/29 06:34:24;;;;;;;60.47;31.73;;;6.40;99.90;;;;;;4332322;33;20613;-64
2021/10/29 06:36:50;;;;;;;57.43;29.90;;;6.30;99.90;;;;;;4331950;33;20518;-64
2021/10/29 06:39:20;;;;;;;58.53;32.10;;;6.40;99.90;;;;;;4332186;33;20178;-64
2021/10/29 06:41:47;;;;;;;60.37;30.93;;;6.40;99.90;;;;;;4333818;33;20176;-64
2021/10/29 06:44:25;;;;;;;57.60;30.70;;;6.50;99.90;;;;;;4332905;33;20184;-63
2021/10/29 07:00:41;;;;;;;53.87;28.73;;;6.70;99.90;;;;;;4300131;33;20266;-64
2021/10/29 07:11:42;;;;;;;56.43;29.30;;;6.90;99.90;;;;;;4287317;33;20258;-63
2021/10/29 07:42:04;;;;;;;50.07;28.13;;;7.70;99.90;;;;;;4290225;33;20272;-62
2021/10/29 07:44:32;;;;;;;48.87;26.63;;;8.00;99.90;;;;;;4308344;33;20456;-63
2021/10/29 07:46:58;;;;;;;42.70;25.90;;;8.30;99.90;;;;;;4306954;33;20245;-63
2021/10/29 07:49:28;;;;;;;45.47;25.23;;;8.70;99.90;;;;;;4318877;33;20153;-63
2021/10/29 07:51:56;;;;;;;49.63;25.40;;;9.10;99.90;;;;;;4306681;33;20578;-64
2021/10/29 07:54:23;;;;;;;46.03;25.20;;;9.50;99.90;;;;;;4308653;33;20199;-63
2021/10/29 07:56:50;;;;;;;44.83;24.93;;;9.90;99.90;;;;;;4307158;33;20511;-63
2021/10/29 07:59:22;;;;;;;43.70;24.70;;;10.20;99.90;;;;;;4306763;33;20472;-63
2021/10/29 08:01:50;;;;;;;45.87;24.80;;;10.40;99.90;;;;;;4306418;33;20225;-63
2021/10/29 08:04:21;;;;;;;42.40;23.70;;;10.60;99.90;;;;;;4308167;33;20196;-63
2021/10/29 08:06:51;;;;;;;42.77;23.63;;;10.80;99.90;;;;;;4305796;33;20193;-63
2021/10/29 08:09:19;;;;;;;44.67;23.43;;;11.00;99.90;;;;;;4307136;33;20256;-63
2021/10/29 08:11:45;;;;;;;41.57;23.47;;;11.10;99.90;;;;;;4319594;33;20243;-63
2021/10/29 08:14:13;;;;;;;38.67;23.17;;;11.40;99.90;;;;;;4320172;33;20488;-64
2021/10/29 08:16:40;;;;;;;37.40;22.27;;;11.60;99.90;;;;;;4317275;33;20185;-63
2021/10/29 08:19:07;;;;;;;38.87;23.03;;;11.70;99.90;;;;;;4335295;33;20140;-63
2021/10/29 08:21:34;;;;;;;38.47;21.93;;;11.90;99.90;;;;;;4335550;33;20284;-62
2021/10/29 08:24:01;;;;;;;43.40;23.10;;;12.20;99.90;;;;;;4333888;33;20236;-63
2021/10/29 08:26:28;;;;;;;41.10;22.23;;;12.40;99.90;;;;;;4321533;33;20252;-63
2021/10/29 08:28:55;;;;;;;36.90;21.43;;;12.50;99.90;;;;;;4335318;33;20187;-63
2021/10/29 08:31:22;;;;;;;33.10;20.60;;;12.70;99.90;;;;;;4322878;33;20228;-63
2021/10/29 08:33:49;;;;;;;40.13;22.47;;;13.00;99.90;;;;;;4321402;33;20180;-64
2021/10/29 08:36:19;;;;;;;38.73;21.40;;;13.30;99.90;;;;;;4334036;33;20236;-64
2021/10/29 08:38:46;;;;;;;39.17;21.93;;;13.70;99.90;;;;;;4335406;33;20185;-63
2021/10/29 08:41:27;;;;;;;35.67;21.57;;;14.00;99.90;;;;;;4334850;33;20180;-64
2021/10/29 08:43:56;;;;;;;36.10;21.10;;;14.40;99.90;;;;;;4335235;33;20220;-63
2021/10/29 08:46:26;;;;;;;38.20;21.10;;;14.70;99.90;;;;;;4334227;33;20176;-64
2021/10/29 08:48:54;;;;;;;34.23;19.90;;;14.80;99.90;;;;;;4336037;33;20148;-63
2021/10/29 08:51:21;;;;;;;32.53;19.97;;;15.10;99.90;;;;;;4334583;33;20264;-64
2021/10/29 08:53:48;;;;;;;33.07;20.60;;;15.20;99.90;;;;;;4321343;33;20204;-64
2021/10/29 08:56:17;;;;;;;38.50;20.50;;;15.50;99.90;;;;;;4323085;33;20181;-64
2021/10/29 08:59:14;;;;;;;34.47;20.63;;;15.50;99.90;;;;;;4322623;33;20286;-64
2021/10/29 09:01:50;;;;;;;33.70;19.73;;;15.80;99.90;;;;;;4335863;33;20451;-63
2021/10/29 09:04:24;;;;;;;34.67;19.83;;;16.00;99.90;;;;;;4335976;33;20172;-63
2021/10/29 09:07:32;;;;;;;33.97;19.83;;;16.00;99.90;;;;;;4322107;33;20235;-64
2021/10/29 09:32:38;;;;;;;30.50;18.87;;;17.50;99.90;;;;;;4288234;33;20232;-64
2021/10/29 09:35:09;;;;;;;32.60;18.57;;;17.70;99.90;;;;;;4289360;33;20235;-64
2021/10/29 09:37:59;;;;;;;30.53;18.10;;;18.00;99.90;;;;;;4289376;33;20261;-65
2021/10/29 09:40:49;;;;;;;30.80;18.70;;;18.20;99.90;;;;;;4287977;33;20204;-63
2021/10/29 09:43:19;;;;;;;31.80;18.37;;;18.20;99.90;;;;;;4270650;33;20499;-63
2021/10/29 09:46:00;;;;;;;27.83;17.47;;;18.30;99.60;;;;;;4289428;33;20197;-63
2021/10/29 09:51:12;;;;;;;30.47;19.17;;;18.80;97.50;;;;;;4331989;33;20244;-64
2021/10/29 09:53:47;;;;;;;28.13;18.43;;;18.70;96.80;;;;;;4334189;33;20196;-64
2021/10/29 09:58:53;;;;;;;30.13;19.23;;;19.00;96.50;;;;;;4332767;33;20184;-63
2021/10/29 10:01:22;;;;;;;31.07;19.50;;;19.40;95.70;;;;;;4335553;33;20191;-63
2021/10/29 10:03:50;;;;;;;28.17;18.00;;;19.70;94.90;;;;;;4340490;33;20238;-62
2021/10/29 10:06:22;;;;;;;28.60;18.23;;;19.90;93.90;;;;;;4332493;33;20574;-62
2021/10/29 10:08:51;;;;;;;31.40;19.80;;;20.20;93.40;;;;;;4331877;33;20562;-62
2021/10/29 10:11:19;;;;;;;31.23;18.57;;;20.30;92.40;;;;;;4333446;33;20207;-62
2021/10/29 10:13:50;;;;;;;28.90;19.23;;;20.50;92.20;;;;;;4333646;33;20239;-62
2021/10/29 10:16:18;;;;;;;31.03;19.83;;;20.50;91.30;;;;;;4333962;33;20440;-63
2021/10/29 10:18:45;;;;;;;29.03;18.43;;;20.60;91.20;;;;;;4333691;33;20219;-63
2021/10/29 10:21:19;;;;;;;31.27;19.27;;;20.80;90.70;;;;;;4319465;33;20222;-63
2021/10/29 10:23:50;;;;;;;29.30;18.87;;;20.90;90.00;;;;;;4333204;33;20183;-62
2021/10/29 10:45:48;;;;;;;28.37;18.87;;;22.30;80.10;;;;;;4321126;33;20184;-64
2021/10/29 10:48:23;;;;;;;31.07;19.57;;;22.40;79.80;;;;;;4333176;33;20180;-63
2021/10/29 10:50:53;;;;;;;30.27;19.07;;;22.50;77.80;;;;;;4330934;33;20211;-63
2021/10/29 10:53:41;;;;;;;28.33;18.77;;;22.50;78.50;;;;;;4333087;33;20180;-64
2021/10/29 11:04:42;;;;;;;28.77;19.20;;;22.80;76.00;;;;;;4344811;33;20249;-63
2021/10/29 11:10:06;;;;;;;29.23;18.80;;;23.10;74.40;;;;;;4320473;33;20240;-63
2021/10/29 11:12:42;;;;;;;30.40;18.60;;;22.70;74.20;;;;;;4330774;33;20215;-66
2021/10/29 11:15:13;;;;;;;28.90;18.67;;;22.20;75.40;;;;;;4330559;33;20215;-65
2021/10/29 11:17:56;;;;;;;28.03;18.93;;;22.10;76.60;;;;;;4331512;33;20176;-66
2021/10/29 11:20:40;;;;;;;28.30;18.43;;;21.80;76.70;;;;;;4320075;33;20475;-66
2021/10/29 11:23:28;;;;;;;31.27;19.53;;;22.20;77.50;;;;;;4334104;33;20216;-65
2021/10/29 11:26:06;;;;;;;32.05;19.75;;;22.40;75.30;;;;;;4331902;33;20197;-67
2021/10/29 11:28:34;;;;;;;30.27;19.52;;;22.70;75.00;;;;;;4333866;33;20163;-66
2021/10/29 11:31:03;;;;;;;29.27;20.25;;;22.90;74.40;;;;;;4319148;33;20184;-66
2021/10/29 11:33:30;;;;;;;31.23;20.77;;;23.60;73.00;;;;;;4321048;33;20196;-65
2021/10/29 11:36:18;;;;;;;30.92;20.65;;;24.00;71.90;;;;;;4333039;33;20192;-65
2021/10/29 11:38:48;;;;;;;29.37;19.75;;;24.60;69.70;;;;;;4334097;33;20175;-66
2021/10/29 11:41:18;;;;;;;28.27;19.45;;;24.90;67.30;;;;;;4321335;33;20227;-66
2021/10/29 11:43:45;;;;;;;31.60;20.55;;;25.50;65.40;;;;;;4336191;33;20216;-64
2021/10/29 11:46:14;;;;;;;28.75;20.35;;;25.90;64.30;;;;;;4333819;33;20220;-63
2021/10/29 11:49:06;;;;;;;30.00;20.37;;;26.30;63.50;;;;;;4332739;33;20236;-63
2021/10/29 11:51:35;;;;;;;29.42;19.35;;;26.90;62.00;;;;;;4329982;33;20219;-64
2021/10/29 12:07:35;;;;;;;29.17;20.00;;;28.80;55.90;;;;;;4345947;33;20195;-64
2021/10/29 12:10:13;;;;;;;29.73;20.60;;;29.10;54.90;;;;;;4347237;33;20175;-65
2021/10/29 12:12:41;;;;;;;29.15;20.73;;;29.10;54.40;;;;;;4333693;33;20176;-64
2021/10/29 12:15:13;;;;;;;32.30;21.37;;;29.20;53.70;;;;;;4335399;33;20195;-64
2021/10/29 12:17:52;;;;;;;29.27;20.20;;;29.00;53.60;;;;;;4345437;33;20251;-63
2021/10/29 12:20:27;;;;;;;28.75;19.27;;;29.00;53.80;;;;;;4335975;33;20452;-64
2021/10/29 12:23:08;;;;;;;27.33;19.50;;;29.50;53.30;;;;;;4348291;33;20270;-64
2021/10/29 12:28:15;;;;;;;27.75;18.73;;;29.90;51.70;;;;;;4348196;33;20183;-64
2021/10/29 12:51:52;;;;;;;27.92;17.73;;;27.60;54.40;;;;;;4335655;33;20226;-65
2021/10/29 12:59:29;;;;;;;24.50;16.65;;;26.40;55.60;;;;;;4330760;33;20184;-63
2021/10/29 13:01:59;;;;;;;26.17;16.70;;;26.00;55.70;;;;;;4319331;33;20606;-65
2021/10/29 13:04:40;;;;;;;26.42;16.70;;;25.50;56.60;;;;;;4307384;33;20152;-63
2021/10/29 13:07:07;;;;;;;26.20;16.37;;;24.80;57.70;;;;;;4321597;33;20418;-65
2021/10/29 13:09:37;;;;;;;24.15;16.15;;;24.30;59.00;;;;;;4331977;33;20181;-64
2021/10/29 13:12:24;;;;;;;24.67;15.90;;;23.80;60.50;;;;;;4307231;33;20236;-65
2021/10/29 13:14:58;;;;;;;26.33;15.23;;;23.10;62.10;;;;;;4320344;33;20188;-64
2021/10/29 13:17:31;;;;;;;22.80;14.40;;;22.80;63.10;;;;;;4319643;33;20231;-64
2021/10/29 13:23:21;;;;;;;22.87;13.30;;;21.30;66.50;;;;;;4321367;33;20196;-64
2021/10/29 13:28:42;;;;;;;21.30;12.97;;;20.60;69.80;;;;;;4277922;33;20190;-63
2021/10/29 13:37:13;;;;;;;20.57;11.80;;;20.10;70.40;;;;;;4287821;33;20249;-64
2021/10/29 13:51:07;;;;;;;19.73;11.80;;;18.00;77.80;;;;;;4240647;33;20225;-63
2021/10/29 14:28:34;;;;;;;18.47;10.70;;;16.20;85.00;;;;;;4321234;33;20260;-63
2021/10/29 14:31:11;;;;;;;19.17;10.90;;;16.10;85.40;;;;;;4321509;33;20235;-64
2021/10/29 14:33:46;;;;;;;22.57;11.13;;;15.90;85.90;;;;;;4321127;33;20181;-64
2021/10/29 14:36:13;;;;;;;17.17;10.10;;;15.80;86.50;;;;;;4324466;33;20549;-63
2021/10/29 14:38:51;;;;;;;21.90;11.80;;;15.60;87.40;;;;;;4321894;33;20184;-64
2021/10/29 14:41:37;;;;;;;16.13;10.57;;;15.50;87.90;;;;;;4334085;33;20183;-63
2021/10/29 14:44:14;;;;;;;22.73;11.17;;;15.40;88.30;;;;;;4346550;33;20184;-64
2021/10/29 14:47:12;;;;;;;20.00;10.93;;;15.20;89.30;;;;;;4348105;33;20183;-64
2021/10/29 14:49:43;;;;;;;20.37;11.17;;;15.10;89.90;;;;;;4333933;33;20216;-63
2021/10/29 15:30:38;;;;;;;18.43;11.00;;;13.50;94.90;;;;;;4260009;33;20210;-64
2021/10/29 15:41:33;;;;;;;17.83;11.40;;;13.20;96.00;;;;;;4258054;33;20238;-63
2021/10/29 15:44:29;;;;;;;20.03;11.03;;;13.10;96.20;;;;;;4258143;33;20177;-63
2021/10/29 15:47:04;;;;;;;17.80;10.83;;;13.10;96.60;;;;;;4259843;33;20251;-64
2021/10/29 15:49:36;;;;;;;18.47;10.37;;;13.00;96.80;;;;;;4257880;33;20199;-65
2021/10/29 15:52:13;;;;;;;20.30;11.07;;;12.90;97.20;;;;;;4268510;33;20542;-64
2021/10/29 15:54:54;;;;;;;19.20;11.03;;;12.80;97.60;;;;;;4259912;33;20185;-64
2021/10/29 15:57:24;;;;;;;20.47;11.83;;;12.80;98.10;;;;;;4274819;33;20177;-64
2021/10/29 16:19:10;;;;;;;21.00;11.17;;;12.40;99.90;;;;;;4290272;33;20149;-64
2021/10/29 16:21:37;;;;;;;18.47;11.23;;;12.30;99.90;;;;;;4290994;33;20237;-64
2021/10/29 16:24:04;;;;;;;20.73;10.70;;;12.30;99.90;;;;;;4290443;33;20189;-65
2021/10/29 16:26:33;;;;;;;20.63;11.47;;;12.30;99.90;;;;;;4289230;33;20158;-65
2021/10/29 16:29:00;;;;;;;21.70;12.27;;;12.30;99.90;;;;;;4292653;33;20633;-66
2021/10/29 16:31:27;;;;;;;21.03;11.50;;;12.20;99.90;;;;;;4288486;33;20499;-66
2021/10/29 16:33:54;;;;;;;21.07;11.67;;;12.20;99.90;;;;;;4277055;33;20237;-66
2021/10/29 16:36:21;;;;;;;21.10;11.53;;;12.20;99.90;;;;;;4278304;33;20580;-65
2021/10/29 16:38:49;;;;;;;22.47;12.23;;;12.20;99.90;;;;;;4278663;33;20209;-66
2021/10/29 16:41:16;;;;;;;22.47;11.53;;;12.30;99.90;;;;;;4302998;33;20236;-66
2021/10/29 16:43:42;;;;;;;22.07;12.00;;;12.20;99.90;;;;;;4334524;33;20279;-65
2021/10/29 16:46:09;;;;;;;21.20;11.20;;;12.20;99.90;;;;;;4333284;33;20236;-66
2021/10/29 16:48:36;;;;;;;26.63;12.70;;;12.30;99.90;;;;;;4322771;33;20562;-66
2021/10/29 16:51:03;;;;;;;21.50;11.77;;;12.30;99.90;;;;;;4321625;33;20622;-65
2021/10/29 16:53:30;;;;;;;22.17;11.73;;;12.20;99.90;;;;;;4336194;33;20241;-65
2021/10/29 16:55:57;;;;;;;25.57;12.67;;;12.20;99.90;;;;;;4322977;33;20215;-65
2021/10/29 16:58:24;;;;;;;23.00;12.27;;;12.10;99.90;;;;;;4321084;33;20169;-65
2021/10/29 17:00:51;;;;;;;23.10;12.47;;;12.20;99.90;;;;;;4322623;33;20540;-64
2021/10/29 17:03:18;;;;;;;26.17;13.10;;;12.20;99.90;;;;;;4322253;33;20204;-64
2021/10/29 17:05:45;;;;;;;26.37;13.73;;;12.20;99.90;;;;;;4322363;33;20177;-64
2021/10/29 17:08:13;;;;;;;25.03;13.50;;;12.20;99.90;;;;;;4321702;33;20180;-64
2021/10/29 17:10:40;;;;;;;26.47;13.80;;;12.20;99.90;;;;;;4321175;33;20532;-64
2021/10/29 17:13:07;;;;;;;24.33;13.13;;;12.20;99.90;;;;;;4322161;33;20177;-65
2021/10/29 17:15:35;;;;;;;26.97;14.03;;;12.20;99.90;;;;;;4334753;33;20161;-65
2021/10/29 17:18:04;;;;;;;30.07;15.43;;;12.20;99.90;;;;;;4336070;33;20194;-66
2021/10/29 17:20:32;;;;;;;28.43;15.33;;;12.20;99.90;;;;;;4322444;33;20207;-64
2021/10/29 17:23:00;;;;;;;28.60;15.53;;;12.20;99.90;;;;;;4320585;33;20461;-66
2021/10/29 17:25:27;;;;;;;27.10;14.77;;;12.20;99.90;;;;;;4320446;33;20216;-64